sensor_id;sensor_type;location;lat;lon;timestamp;P1;durP1;ratioP1;P2;durP2;ratioP2
15921;SDS011;8060;50.948;3.146;2022-09-03T05:58:51;28.20;;;20.20;;
15921;SDS011;8060;50.948;3.146;2022-09-03T06:01:21;25.23;;;20.17;;
15921;SDS011;8060;50.948;3.146;2022-09-03T06:03:52;24.10;;;19.10;;
15921;SDS011;8060;50.948;3.146;2022-09-03T06:06:22;24.33;;;19.00;;
15921;SDS011;8060;50.948;3.146;2022-09-03T06:08:51;24.07;;;19.43;;
15921;SDS011;8060;50.948;3.146;2022-09-03T06:11:20;30.20;;;20.03;;
15921;SDS011;8060;50.948;3.146;2022-09-03T06:13:53;23.63;;;19.73;;
15921;SDS011;8060;50.948;3.146;2022-09-03T06:16:22;27.77;;;19.73;;
15921;SDS011;8060;50.948;3.146;2022-09-03T06:18:57;23.37;;;20.17;;
15921;SDS011;8060;50.948;3.146;2022-09-03T06:21:26;27.17;;;19.07;;
15921;SDS011;8060;50.948;3.146;2022-09-03T06:23:55;30.27;;;18.87;;
15921;SDS011;8060;50.948;3.146;2022-09-03T06:26:25;25.40;;;19.43;;
15921;SDS011;8060;50.948;3.146;2022-09-03T06:28:56;26.13;;;18.27;;
15921;SDS011;8060;50.948;3.146;2022-09-03T06:31:25;26.00;;;18.47;;
15921;SDS011;8060;50.948;3.146;2022-09-03T06:33:53;25.17;;;18.03;;
15921;SDS011;8060;50.948;3.146;2022-09-03T06:36:28;23.63;;;17.67;;
15921;SDS011;8060;50.948;3.146;2022-09-03T06:38:57;29.13;;;18.90;;
15921;SDS011;8060;50.948;3.146;2022-09-03T06:41:26;29.40;;;17.73;;
15921;SDS011;8060;50.948;3.146;2022-09-03T06:44:00;22.17;;;18.10;;
15921;SDS011;8060;50.948;3.146;2022-09-03T06:46:30;20.93;;;17.63;;
15921;SDS011;8060;50.948;3.146;2022-09-03T06:49:00;24.87;;;17.53;;
15921;SDS011;8060;50.948;3.146;2022-09-03T06:51:29;23.07;;;17.00;;
15921;SDS011;8060;50.948;3.146;2022-09-03T06:53:58;23.00;;;17.17;;
15921;SDS011;8060;50.948;3.146;2022-09-03T06:56:29;21.50;;;16.93;;
15921;SDS011;8060;50.948;3.146;2022-09-03T06:59:06;22.27;;;17.00;;
15921;SDS011;8060;50.948;3.146;2022-09-03T07:01:36;20.23;;;16.57;;
15921;SDS011;8060;50.948;3.146;2022-09-03T07:04:09;22.80;;;16.63;;
15921;SDS011;8060;50.948;3.146;2022-09-03T07:06:39;20.73;;;16.70;;
15921;SDS011;8060;50.948;3.146;2022-09-03T07:09:09;21.03;;;16.10;;
15921;SDS011;8060;50.948;3.146;2022-09-03T07:11:39;21.97;;;16.47;;
15921;SDS011;8060;50.948;3.146;2022-09-03T07:14:15;23.97;;;16.53;;
15921;SDS011;8060;50.948;3.146;2022-09-03T07:16:44;19.43;;;16.40;;
15921;SDS011;8060;50.948;3.146;2022-09-03T07:19:13;19.60;;;15.23;;
15921;SDS011;8060;50.948;3.146;2022-09-03T07:21:42;18.33;;;15.37;;
15921;SDS011;8060;50.948;3.146;2022-09-03T07:24:15;21.43;;;15.80;;
15921;SDS011;8060;50.948;3.146;2022-09-03T07:26:44;19.90;;;15.57;;
15921;SDS011;8060;50.948;3.146;2022-09-03T07:29:15;22.37;;;15.00;;
15921;SDS011;8060;50.948;3.146;2022-09-03T07:31:47;23.60;;;16.00;;
15921;SDS011;8060;50.948;3.146;2022-09-03T07:34:18;23.97;;;14.70;;
15921;SDS011;8060;50.948;3.146;2022-09-03T07:36:50;25.60;;;14.90;;
15921;SDS011;8060;50.948;3.146;2022-09-03T07:39:19;20.13;;;13.77;;
15921;SDS011;8060;50.948;3.146;2022-09-03T07:41:47;18.73;;;13.47;;
15921;SDS011;8060;50.948;3.146;2022-09-03T07:44:17;16.33;;;14.37;;
15921;SDS011;8060;50.948;3.146;2022-09-03T07:46:46;15.50;;;13.63;;
15921;SDS011;8060;50.948;3.146;2022-09-03T07:49:17;14.63;;;12.80;;
15921;SDS011;8060;50.948;3.146;2022-09-03T07:51:46;17.33;;;13.10;;
15921;SDS011;8060;50.948;3.146;2022-09-03T07:54:16;15.60;;;12.67;;
15921;SDS011;8060;50.948;3.146;2022-09-03T07:56:45;16.40;;;12.43;;
15921;SDS011;8060;50.948;3.146;2022-09-03T07:59:13;18.03;;;12.83;;
15921;SDS011;8060;50.948;3.146;2022-09-03T08:01:43;17.63;;;13.40;;
15921;SDS011;8060;50.948;3.146;2022-09-03T08:04:11;19.57;;;12.40;;
15921;SDS011;8060;50.948;3.146;2022-09-03T08:06:39;17.10;;;12.20;;
15921;SDS011;8060;50.948;3.146;2022-09-03T08:09:08;20.77;;;12.37;;
15921;SDS011;8060;50.948;3.146;2022-09-03T08:11:39;17.50;;;12.30;;
15921;SDS011;8060;50.948;3.146;2022-09-03T08:14:09;17.33;;;12.30;;
15921;SDS011;8060;50.948;3.146;2022-09-03T08:16:39;20.57;;;12.37;;
15921;SDS011;8060;50.948;3.146;2022-09-03T08:19:10;16.20;;;12.47;;
15921;SDS011;8060;50.948;3.146;2022-09-03T08:21:39;18.57;;;13.07;;
15921;SDS011;8060;50.948;3.146;2022-09-03T08:24:08;18.23;;;13.33;;
15921;SDS011;8060;50.948;3.146;2022-09-03T08:26:38;21.43;;;14.97;;
15921;SDS011;8060;50.948;3.146;2022-09-03T08:29:13;20.03;;;13.93;;
15921;SDS011;8060;50.948;3.146;2022-09-03T08:31:41;16.60;;;14.00;;
15921;SDS011;8060;50.948;3.146;2022-09-03T08:34:11;15.67;;;13.70;;
15921;SDS011;8060;50.948;3.146;2022-09-03T08:36:40;16.87;;;12.83;;
15921;SDS011;8060;50.948;3.146;2022-09-03T08:39:08;19.27;;;13.60;;
15921;SDS011;8060;50.948;3.146;2022-09-03T08:41:45;17.50;;;13.00;;
15921;SDS011;8060;50.948;3.146;2022-09-03T08:44:24;18.50;;;13.43;;
15921;SDS011;8060;50.948;3.146;2022-09-03T08:46:56;17.90;;;12.70;;
15921;SDS011;8060;50.948;3.146;2022-09-03T08:49:30;20.07;;;12.80;;
15921;SDS011;8060;50.948;3.146;2022-09-03T08:52:08;16.37;;;12.23;;
15921;SDS011;8060;50.948;3.146;2022-09-03T08:54:51;15.93;;;12.00;;
15921;SDS011;8060;50.948;3.146;2022-09-03T08:57:22;13.23;;;11.80;;
15921;SDS011;8060;50.948;3.146;2022-09-03T08:59:53;16.47;;;12.07;;
15921;SDS011;8060;50.948;3.146;2022-09-03T09:02:24;15.60;;;12.03;;
15921;SDS011;8060;50.948;3.146;2022-09-03T09:05:02;15.87;;;12.13;;
15921;SDS011;8060;50.948;3.146;2022-09-03T09:07:41;15.53;;;12.33;;
15921;SDS011;8060;50.948;3.146;2022-09-03T09:10:16;15.20;;;12.30;;
15921;SDS011;8060;50.948;3.146;2022-09-03T09:12:57;16.80;;;11.50;;
15921;SDS011;8060;50.948;3.146;2022-09-03T09:15:36;13.93;;;11.40;;
15921;SDS011;8060;50.948;3.146;2022-09-03T09:18:17;23.27;;;12.57;;
15921;SDS011;8060;50.948;3.146;2022-09-03T09:20:57;16.57;;;12.67;;
15921;SDS011;8060;50.948;3.146;2022-09-03T09:23:34;18.43;;;12.33;;
15921;SDS011;8060;50.948;3.146;2022-09-03T09:26:08;14.13;;;12.37;;
15921;SDS011;8060;50.948;3.146;2022-09-03T09:28:40;19.17;;;12.00;;
15921;SDS011;8060;50.948;3.146;2022-09-03T09:31:11;15.10;;;12.60;;
15921;SDS011;8060;50.948;3.146;2022-09-03T09:33:44;12.87;;;11.53;;
15921;SDS011;8060;50.948;3.146;2022-09-03T09:36:15;20.50;;;12.13;;
15921;SDS011;8060;50.948;3.146;2022-09-03T09:38:45;14.03;;;12.17;;
15921;SDS011;8060;50.948;3.146;2022-09-03T09:41:14;14.10;;;11.57;;
15921;SDS011;8060;50.948;3.146;2022-09-03T09:43:45;18.07;;;12.90;;
15921;SDS011;8060;50.948;3.146;2022-09-03T09:46:15;14.07;;;11.90;;
15921;SDS011;8060;50.948;3.146;2022-09-03T09:48:48;16.07;;;12.50;;
15921;SDS011;8060;50.948;3.146;2022-09-03T09:51:20;15.17;;;12.47;;
15921;SDS011;8060;50.948;3.146;2022-09-03T09:53:59;15.20;;;12.47;;
15921;SDS011;8060;50.948;3.146;2022-09-03T09:56:28;15.17;;;11.83;;
15921;SDS011;8060;50.948;3.146;2022-09-03T09:59:03;15.17;;;12.83;;
15921;SDS011;8060;50.948;3.146;2022-09-03T10:01:32;20.03;;;13.90;;
15921;SDS011;8060;50.948;3.146;2022-09-03T10:04:07;15.50;;;12.60;;
15921;SDS011;8060;50.948;3.146;2022-09-03T10:06:38;20.77;;;13.37;;
15921;SDS011;8060;50.948;3.146;2022-09-03T10:09:23;15.83;;;12.30;;
15921;SDS011;8060;50.948;3.146;2022-09-03T10:12:00;14.13;;;12.17;;
15921;SDS011;8060;50.948;3.146;2022-09-03T10:14:36;16.93;;;12.53;;
15921;SDS011;8060;50.948;3.146;2022-09-03T10:17:10;20.77;;;13.30;;
15921;SDS011;8060;50.948;3.146;2022-09-03T10:19:47;13.67;;;11.40;;
15921;SDS011;8060;50.948;3.146;2022-09-03T10:22:39;17.20;;;11.55;;
15921;SDS011;8060;50.948;3.146;2022-09-03T10:25:24;12.10;;;10.40;;
15921;SDS011;8060;50.948;3.146;2022-09-03T10:27:55;12.30;;;10.02;;
15921;SDS011;8060;50.948;3.146;2022-09-03T10:30:27;13.50;;;12.10;;
15921;SDS011;8060;50.948;3.146;2022-09-03T10:32:59;13.85;;;11.15;;
15921;SDS011;8060;50.948;3.146;2022-09-03T10:35:34;11.80;;;10.30;;
15921;SDS011;8060;50.948;3.146;2022-09-03T10:38:09;11.85;;;9.80;;
15921;SDS011;8060;50.948;3.146;2022-09-03T10:40:49;12.60;;;10.75;;
15921;SDS011;8060;50.948;3.146;2022-09-03T10:43:27;15.90;;;10.05;;
15921;SDS011;8060;50.948;3.146;2022-09-03T10:46:09;13.68;;;10.43;;
15921;SDS011;8060;50.948;3.146;2022-09-03T10:48:44;11.23;;;10.13;;
15921;SDS011;8060;50.948;3.146;2022-09-03T10:51:22;12.75;;;9.95;;
15921;SDS011;8060;50.948;3.146;2022-09-03T10:57:01;15.65;;;9.43;;
15921;SDS011;8060;50.948;3.146;2022-09-03T10:59:38;14.25;;;10.80;;
15921;SDS011;8060;50.948;3.146;2022-09-03T11:02:19;14.65;;;11.60;;
15921;SDS011;8060;50.948;3.146;2022-09-03T11:04:57;13.60;;;11.63;;
15921;SDS011;8060;50.948;3.146;2022-09-03T11:07:30;13.23;;;11.30;;
15921;SDS011;8060;50.948;3.146;2022-09-03T11:10:06;13.52;;;10.50;;
15921;SDS011;8060;50.948;3.146;2022-09-03T11:12:43;13.88;;;11.00;;
15921;SDS011;8060;50.948;3.146;2022-09-03T11:15:21;16.10;;;11.73;;
15921;SDS011;8060;50.948;3.146;2022-09-03T11:17:53;13.70;;;11.32;;
15921;SDS011;8060;50.948;3.146;2022-09-03T11:20:25;16.00;;;12.13;;
15921;SDS011;8060;50.948;3.146;2022-09-03T11:22:54;21.25;;;12.82;;
15921;SDS011;8060;50.948;3.146;2022-09-03T11:25:29;11.82;;;10.27;;
15921;SDS011;8060;50.948;3.146;2022-09-03T11:28:04;12.20;;;10.45;;
15921;SDS011;8060;50.948;3.146;2022-09-03T11:30:48;14.48;;;11.65;;
15921;SDS011;8060;50.948;3.146;2022-09-03T11:33:26;15.15;;;10.38;;
15921;SDS011;8060;50.948;3.146;2022-09-03T11:35:56;13.95;;;11.27;;
15921;SDS011;8060;50.948;3.146;2022-09-03T11:38:27;10.98;;;9.00;;
15921;SDS011;8060;50.948;3.146;2022-09-03T11:40:58;11.63;;;10.43;;
15921;SDS011;8060;50.948;3.146;2022-09-03T11:43:32;12.27;;;10.48;;
15921;SDS011;8060;50.948;3.146;2022-09-03T11:46:01;13.07;;;11.77;;
15921;SDS011;8060;50.948;3.146;2022-09-03T11:48:36;13.35;;;10.05;;
15921;SDS011;8060;50.948;3.146;2022-09-03T11:51:16;10.55;;;9.35;;
15921;SDS011;8060;50.948;3.146;2022-09-03T11:53:52;12.82;;;9.48;;
15921;SDS011;8060;50.948;3.146;2022-09-03T11:56:22;11.20;;;8.40;;
15921;SDS011;8060;50.948;3.146;2022-09-03T11:59:15;10.65;;;7.75;;
15921;SDS011;8060;50.948;3.146;2022-09-03T12:01:47;9.50;;;6.93;;
15921;SDS011;8060;50.948;3.146;2022-09-03T12:04:19;11.88;;;10.70;;
15921;SDS011;8060;50.948;3.146;2022-09-03T12:06:56;16.52;;;9.23;;
15921;SDS011;8060;50.948;3.146;2022-09-03T12:09:53;13.10;;;8.90;;
15921;SDS011;8060;50.948;3.146;2022-09-03T12:12:42;10.40;;;9.30;;
15921;SDS011;8060;50.948;3.146;2022-09-03T12:15:25;13.63;;;10.65;;
15921;SDS011;8060;50.948;3.146;2022-09-03T12:18:13;14.15;;;8.75;;
15921;SDS011;8060;50.948;3.146;2022-09-03T12:20:45;11.00;;;7.93;;
15921;SDS011;8060;50.948;3.146;2022-09-03T12:23:25;7.53;;;5.30;;
15921;SDS011;8060;50.948;3.146;2022-09-03T12:25:54;6.80;;;6.07;;
15921;SDS011;8060;50.948;3.146;2022-09-03T12:28:22;7.13;;;6.43;;
15921;SDS011;8060;50.948;3.146;2022-09-03T12:31:04;7.25;;;5.93;;
15921;SDS011;8060;50.948;3.146;2022-09-03T12:33:47;5.15;;;4.38;;
15921;SDS011;8060;50.948;3.146;2022-09-03T12:36:16;7.05;;;5.15;;
15921;SDS011;8060;50.948;3.146;2022-09-03T12:38:44;6.85;;;5.85;;
15921;SDS011;8060;50.948;3.146;2022-09-03T12:41:33;8.05;;;7.10;;
15921;SDS011;8060;50.948;3.146;2022-09-03T12:44:03;8.30;;;4.68;;
15921;SDS011;8060;50.948;3.146;2022-09-03T12:46:33;6.15;;;4.63;;
15921;SDS011;8060;50.948;3.146;2022-09-03T12:49:01;6.13;;;5.43;;
15921;SDS011;8060;50.948;3.146;2022-09-03T12:51:57;5.13;;;4.40;;
15921;SDS011;8060;50.948;3.146;2022-09-03T12:54:31;7.35;;;3.78;;
15921;SDS011;8060;50.948;3.146;2022-09-03T12:57:00;3.85;;;2.90;;
15921;SDS011;8060;50.948;3.146;2022-09-03T12:59:30;3.53;;;3.20;;
15921;SDS011;8060;50.948;3.146;2022-09-03T13:02:03;4.07;;;2.67;;
15921;SDS011;8060;50.948;3.146;2022-09-03T13:04:39;4.82;;;3.50;;
15921;SDS011;8060;50.948;3.146;2022-09-03T13:07:10;4.80;;;3.95;;
15921;SDS011;8060;50.948;3.146;2022-09-03T13:09:46;8.18;;;4.28;;
15921;SDS011;8060;50.948;3.146;2022-09-03T13:12:22;6.60;;;4.10;;
15921;SDS011;8060;50.948;3.146;2022-09-03T13:15:03;9.98;;;3.90;;
15921;SDS011;8060;50.948;3.146;2022-09-03T13:20:39;6.68;;;3.85;;
15921;SDS011;8060;50.948;3.146;2022-09-03T13:23:30;5.47;;;4.32;;
15921;SDS011;8060;50.948;3.146;2022-09-03T13:26:10;5.20;;;4.30;;
15921;SDS011;8060;50.948;3.146;2022-09-03T13:28:52;5.70;;;3.92;;
15921;SDS011;8060;50.948;3.146;2022-09-03T13:31:33;8.85;;;4.18;;
15921;SDS011;8060;50.948;3.146;2022-09-03T13:34:08;6.93;;;4.05;;
15921;SDS011;8060;50.948;3.146;2022-09-03T13:36:43;8.93;;;4.38;;
15921;SDS011;8060;50.948;3.146;2022-09-03T13:39:18;6.40;;;3.85;;
15921;SDS011;8060;50.948;3.146;2022-09-03T13:41:52;4.60;;;3.78;;
15921;SDS011;8060;50.948;3.146;2022-09-03T13:44:28;8.40;;;4.38;;
15921;SDS011;8060;50.948;3.146;2022-09-03T13:47:04;10.20;;;4.10;;
15921;SDS011;8060;50.948;3.146;2022-09-03T13:49:41;5.47;;;3.92;;
15921;SDS011;8060;50.948;3.146;2022-09-03T13:52:33;8.93;;;4.00;;
15921;SDS011;8060;50.948;3.146;2022-09-03T13:55:10;7.18;;;3.30;;
15921;SDS011;8060;50.948;3.146;2022-09-03T13:57:45;5.43;;;3.80;;
15921;SDS011;8060;50.948;3.146;2022-09-03T14:00:27;5.85;;;3.83;;
15921;SDS011;8060;50.948;3.146;2022-09-03T14:03:02;8.27;;;3.78;;
15921;SDS011;8060;50.948;3.146;2022-09-03T14:05:46;7.85;;;3.90;;
15921;SDS011;8060;50.948;3.146;2022-09-03T14:08:22;4.30;;;3.47;;
15921;SDS011;8060;50.948;3.146;2022-09-03T14:10:59;6.00;;;3.88;;
15921;SDS011;8060;50.948;3.146;2022-09-03T14:13:41;6.20;;;3.80;;
15921;SDS011;8060;50.948;3.146;2022-09-03T14:16:23;5.07;;;4.00;;
15921;SDS011;8060;50.948;3.146;2022-09-03T14:18:58;10.00;;;4.75;;
15921;SDS011;8060;50.948;3.146;2022-09-03T14:21:34;9.18;;;4.07;;
15921;SDS011;8060;50.948;3.146;2022-09-03T14:24:11;5.90;;;3.20;;
15921;SDS011;8060;50.948;3.146;2022-09-03T14:26:50;3.95;;;2.90;;
15921;SDS011;8060;50.948;3.146;2022-09-03T14:29:22;3.78;;;3.20;;
15921;SDS011;8060;50.948;3.146;2022-09-03T14:34:50;7.28;;;3.42;;
15921;SDS011;8060;50.948;3.146;2022-09-03T14:37:36;4.28;;;3.15;;
15921;SDS011;8060;50.948;3.146;2022-09-03T14:40:17;6.82;;;3.70;;
15921;SDS011;8060;50.948;3.146;2022-09-03T14:42:55;9.85;;;3.63;;
15921;SDS011;8060;50.948;3.146;2022-09-03T14:48:36;6.80;;;4.97;;
15921;SDS011;8060;50.948;3.146;2022-09-03T14:51:19;6.97;;;4.63;;
15921;SDS011;8060;50.948;3.146;2022-09-03T14:57:26;13.48;;;4.90;;
15921;SDS011;8060;50.948;3.146;2022-09-03T15:00:12;6.18;;;4.97;;
15921;SDS011;8060;50.948;3.146;2022-09-03T15:02:59;8.63;;;4.50;;
15921;SDS011;8060;50.948;3.146;2022-09-03T15:05:49;5.82;;;4.68;;
15921;SDS011;8060;50.948;3.146;2022-09-03T15:08:34;5.68;;;4.70;;
15921;SDS011;8060;50.948;3.146;2022-09-03T15:11:14;5.75;;;4.25;;
15921;SDS011;8060;50.948;3.146;2022-09-03T15:13:47;4.22;;;3.83;;
15921;SDS011;8060;50.948;3.146;2022-09-03T15:16:30;5.90;;;4.47;;
15921;SDS011;8060;50.948;3.146;2022-09-03T15:19:15;6.97;;;4.70;;
15921;SDS011;8060;50.948;3.146;2022-09-03T15:21:59;6.13;;;3.97;;
15921;SDS011;8060;50.948;3.146;2022-09-03T15:24:42;6.00;;;3.35;;
15921;SDS011;8060;50.948;3.146;2022-09-03T15:27:27;6.47;;;3.70;;
15921;SDS011;8060;50.948;3.146;2022-09-03T15:30:08;7.70;;;3.45;;
15921;SDS011;8060;50.948;3.146;2022-09-03T15:32:42;5.60;;;3.50;;
15921;SDS011;8060;50.948;3.146;2022-09-03T15:35:28;8.07;;;3.60;;
15921;SDS011;8060;50.948;3.146;2022-09-03T15:38:04;9.82;;;3.10;;
15921;SDS011;8060;50.948;3.146;2022-09-03T15:40:38;4.72;;;3.42;;
15921;SDS011;8060;50.948;3.146;2022-09-03T15:43:09;5.15;;;3.38;;
15921;SDS011;8060;50.948;3.146;2022-09-03T15:45:52;5.20;;;3.10;;
15921;SDS011;8060;50.948;3.146;2022-09-03T15:48:29;4.60;;;2.45;;
15921;SDS011;8060;50.948;3.146;2022-09-03T15:51:07;3.60;;;2.50;;
15921;SDS011;8060;50.948;3.146;2022-09-03T15:53:40;7.93;;;2.40;;
15921;SDS011;8060;50.948;3.146;2022-09-03T15:56:18;3.47;;;2.28;;
15921;SDS011;8060;50.948;3.146;2022-09-03T15:58:54;3.20;;;2.10;;
15921;SDS011;8060;50.948;3.146;2022-09-03T16:01:30;2.95;;;2.40;;
15921;SDS011;8060;50.948;3.146;2022-09-03T16:04:06;5.97;;;2.80;;
15921;SDS011;8060;50.948;3.146;2022-09-03T16:06:48;6.00;;;2.50;;
15921;SDS011;8060;50.948;3.146;2022-09-03T16:09:26;3.05;;;2.40;;
15921;SDS011;8060;50.948;3.146;2022-09-03T16:12:09;3.28;;;2.40;;
15921;SDS011;8060;50.948;3.146;2022-09-03T16:14:48;4.50;;;2.78;;
15921;SDS011;8060;50.948;3.146;2022-09-03T16:17:27;5.05;;;2.75;;
15921;SDS011;8060;50.948;3.146;2022-09-03T16:20:00;4.22;;;2.35;;
15921;SDS011;8060;50.948;3.146;2022-09-03T16:22:32;3.80;;;2.40;;
15921;SDS011;8060;50.948;3.146;2022-09-03T16:25:11;3.53;;;2.15;;
15921;SDS011;8060;50.948;3.146;2022-09-03T16:27:49;4.68;;;2.50;;
15921;SDS011;8060;50.948;3.146;2022-09-03T16:30:27;4.80;;;2.40;;
15921;SDS011;8060;50.948;3.146;2022-09-03T16:33:08;3.78;;;2.40;;
15921;SDS011;8060;50.948;3.146;2022-09-03T16:35:42;5.68;;;2.65;;
15921;SDS011;8060;50.948;3.146;2022-09-03T16:38:22;3.17;;;2.40;;
15921;SDS011;8060;50.948;3.146;2022-09-03T16:40:59;3.42;;;2.42;;
15921;SDS011;8060;50.948;3.146;2022-09-03T16:43:38;5.03;;;3.30;;
15921;SDS011;8060;50.948;3.146;2022-09-03T16:46:17;3.60;;;3.28;;
15921;SDS011;8060;50.948;3.146;2022-09-03T16:48:54;5.20;;;3.60;;
15921;SDS011;8060;50.948;3.146;2022-09-03T16:51:34;5.63;;;3.78;;
15921;SDS011;8060;50.948;3.146;2022-09-03T16:54:17;6.88;;;3.70;;
15921;SDS011;8060;50.948;3.146;2022-09-03T16:56:59;12.23;;;5.70;;
15921;SDS011;8060;50.948;3.146;2022-09-03T16:59:45;5.30;;;3.47;;
15921;SDS011;8060;50.948;3.146;2022-09-03T17:02:32;9.02;;;3.80;;
15921;SDS011;8060;50.948;3.146;2022-09-03T17:05:12;8.77;;;4.82;;
15921;SDS011;8060;50.948;3.146;2022-09-03T17:07:56;7.75;;;4.05;;
15921;SDS011;8060;50.948;3.146;2022-09-03T17:10:36;8.35;;;6.28;;
15921;SDS011;8060;50.948;3.146;2022-09-03T17:13:14;16.10;;;12.70;;
15921;SDS011;8060;50.948;3.146;2022-09-03T17:16:00;16.80;;;13.90;;
15921;SDS011;8060;50.948;3.146;2022-09-03T17:18:46;13.93;;;11.60;;
15921;SDS011;8060;50.948;3.146;2022-09-03T17:21:23;19.40;;;13.23;;
15921;SDS011;8060;50.948;3.146;2022-09-03T17:24:04;15.30;;;11.27;;
15921;SDS011;8060;50.948;3.146;2022-09-03T17:26:51;10.63;;;8.57;;
15921;SDS011;8060;50.948;3.146;2022-09-03T17:29:34;11.23;;;7.75;;
15921;SDS011;8060;50.948;3.146;2022-09-03T17:32:21;10.60;;;7.80;;
15921;SDS011;8060;50.948;3.146;2022-09-03T17:35:02;10.82;;;7.72;;
15921;SDS011;8060;50.948;3.146;2022-09-03T17:37:41;11.77;;;8.98;;
15921;SDS011;8060;50.948;3.146;2022-09-03T17:40:25;13.10;;;8.27;;
15921;SDS011;8060;50.948;3.146;2022-09-03T17:43:03;13.43;;;10.18;;
15921;SDS011;8060;50.948;3.146;2022-09-03T17:45:42;13.00;;;11.60;;
15921;SDS011;8060;50.948;3.146;2022-09-03T17:48:19;16.33;;;11.97;;
15921;SDS011;8060;50.948;3.146;2022-09-03T17:51:07;15.70;;;13.00;;
15921;SDS011;8060;50.948;3.146;2022-09-03T17:53:45;15.10;;;12.47;;
15921;SDS011;8060;50.948;3.146;2022-09-03T17:56:19;15.10;;;12.38;;
15921;SDS011;8060;50.948;3.146;2022-09-03T17:58:52;13.47;;;10.40;;
15921;SDS011;8060;50.948;3.146;2022-09-03T18:01:32;11.57;;;9.87;;
15921;SDS011;8060;50.948;3.146;2022-09-03T18:04:10;9.67;;;8.60;;
15921;SDS011;8060;50.948;3.146;2022-09-03T18:06:47;11.30;;;8.40;;
15921;SDS011;8060;50.948;3.146;2022-09-03T18:09:25;10.43;;;8.47;;
15921;SDS011;8060;50.948;3.146;2022-09-03T18:12:05;10.18;;;8.30;;
15921;SDS011;8060;50.948;3.146;2022-09-03T18:14:37;11.70;;;8.70;;
15921;SDS011;8060;50.948;3.146;2022-09-03T18:17:12;11.17;;;8.43;;
15921;SDS011;8060;50.948;3.146;2022-09-03T18:19:48;9.15;;;8.00;;
15921;SDS011;8060;50.948;3.146;2022-09-03T18:22:39;10.73;;;8.27;;
15921;SDS011;8060;50.948;3.146;2022-09-03T18:25:34;11.77;;;7.90;;
15921;SDS011;8060;50.948;3.146;2022-09-03T18:28:26;9.70;;;8.40;;
15921;SDS011;8060;50.948;3.146;2022-09-03T18:31:18;15.80;;;9.30;;
15921;SDS011;8060;50.948;3.146;2022-09-03T18:34:04;11.20;;;9.27;;
15921;SDS011;8060;50.948;3.146;2022-09-03T18:36:52;9.97;;;8.97;;
15921;SDS011;8060;50.948;3.146;2022-09-03T18:39:43;10.23;;;8.70;;
15921;SDS011;8060;50.948;3.146;2022-09-03T18:42:35;12.87;;;10.23;;
15921;SDS011;8060;50.948;3.146;2022-09-03T18:45:34;12.00;;;9.77;;
15921;SDS011;8060;50.948;3.146;2022-09-03T18:48:47;12.03;;;10.13;;
15921;SDS011;8060;50.948;3.146;2022-09-03T18:51:42;12.43;;;10.33;;
15921;SDS011;8060;50.948;3.146;2022-09-03T18:54:38;15.40;;;13.27;;
15921;SDS011;8060;50.948;3.146;2022-09-03T18:57:42;15.38;;;12.65;;
15921;SDS011;8060;50.948;3.146;2022-09-03T19:00:38;16.87;;;14.60;;
15921;SDS011;8060;50.948;3.146;2022-09-03T19:03:35;22.80;;;16.77;;
15921;SDS011;8060;50.948;3.146;2022-09-03T19:06:30;22.50;;;18.00;;
15921;SDS011;8060;50.948;3.146;2022-09-03T19:09:28;32.10;;;22.77;;
15921;SDS011;8060;50.948;3.146;2022-09-03T19:12:25;25.40;;;22.03;;
15921;SDS011;8060;50.948;3.146;2022-09-03T19:15:27;24.33;;;19.63;;
15921;SDS011;8060;50.948;3.146;2022-09-03T19:18:18;24.73;;;21.47;;
15921;SDS011;8060;50.948;3.146;2022-09-03T19:21:18;24.63;;;20.40;;
15921;SDS011;8060;50.948;3.146;2022-09-03T19:24:09;22.53;;;18.00;;
15921;SDS011;8060;50.948;3.146;2022-09-03T19:26:58;23.63;;;17.93;;
15921;SDS011;8060;50.948;3.146;2022-09-03T19:30:08;26.23;;;22.17;;
15921;SDS011;8060;50.948;3.146;2022-09-03T19:33:02;32.57;;;25.27;;
15921;SDS011;8060;50.948;3.146;2022-09-03T19:35:57;39.70;;;32.17;;
15921;SDS011;8060;50.948;3.146;2022-09-03T19:38:54;43.30;;;34.40;;
15921;SDS011;8060;50.948;3.146;2022-09-03T19:41:51;41.00;;;36.23;;
15921;SDS011;8060;50.948;3.146;2022-09-03T19:44:50;43.00;;;36.17;;
15921;SDS011;8060;50.948;3.146;2022-09-03T19:47:47;42.87;;;36.80;;
15921;SDS011;8060;50.948;3.146;2022-09-03T19:50:43;46.23;;;38.10;;
15921;SDS011;8060;50.948;3.146;2022-09-03T19:53:40;47.77;;;38.50;;
15921;SDS011;8060;50.948;3.146;2022-09-03T19:56:27;49.80;;;39.90;;
15921;SDS011;8060;50.948;3.146;2022-09-03T19:59:15;49.47;;;39.53;;
15921;SDS011;8060;50.948;3.146;2022-09-03T20:02:03;49.80;;;40.80;;
15921;SDS011;8060;50.948;3.146;2022-09-03T20:04:50;46.97;;;39.67;;
15921;SDS011;8060;50.948;3.146;2022-09-03T20:07:49;48.53;;;39.90;;
15921;SDS011;8060;50.948;3.146;2022-09-03T20:10:43;48.53;;;39.97;;
15921;SDS011;8060;50.948;3.146;2022-09-03T20:13:21;48.63;;;40.27;;
15921;SDS011;8060;50.948;3.146;2022-09-03T20:15:55;47.77;;;40.50;;
15921;SDS011;8060;50.948;3.146;2022-09-03T20:18:39;52.43;;;42.60;;
15921;SDS011;8060;50.948;3.146;2022-09-03T20:21:19;50.57;;;41.70;;
15921;SDS011;8060;50.948;3.146;2022-09-03T20:24:03;52.67;;;42.63;;
